sensor_id;sensor_type;location;lat;lon;timestamp;pressure;altitude;pressure_sealevel;temperature;humidity
44213;BME280;29882;46.356;17.798;2022-08-19T04:43:08;99162.00;;;23.04;100.00
44213;BME280;29882;46.356;17.798;2022-08-19T04:45:45;99179.88;;;23.06;100.00
44213;BME280;29882;46.356;17.798;2022-08-19T04:48:12;99180.44;;;23.08;100.00
44213;BME280;29882;46.356;17.798;2022-08-19T04:50:54;99178.56;;;23.14;100.00
44213;BME280;29882;46.356;17.798;2022-08-19T04:53:32;99186.34;;;23.22;100.00
44213;BME280;29882;46.356;17.798;2022-08-19T04:56:09;99192.44;;;23.29;100.00
44213;BME280;29882;46.356;17.798;2022-08-19T04:58:38;99195.47;;;23.33;100.00
44213;BME280;29882;46.356;17.798;2022-08-19T05:01:06;99194.16;;;23.40;100.00
44213;BME280;29882;46.356;17.798;2022-08-19T05:03:35;99184.63;;;23.53;100.00
44213;BME280;29882;46.356;17.798;2022-08-19T05:06:07;99179.16;;;23.58;100.00
44213;BME280;29882;46.356;17.798;2022-08-19T05:08:36;99182.53;;;23.65;100.00
44213;BME280;29882;46.356;17.798;2022-08-19T05:11:13;99181.50;;;23.76;100.00
44213;BME280;29882;46.356;17.798;2022-08-19T05:13:41;99185.34;;;23.81;100.00
44213;BME280;29882;46.356;17.798;2022-08-19T05:16:11;99192.59;;;23.92;100.00
44213;BME280;29882;46.356;17.798;2022-08-19T05:18:40;99179.16;;;24.05;100.00
44213;BME280;29882;46.356;17.798;2022-08-19T05:21:26;99185.28;;;24.18;99.12
44213;BME280;29882;46.356;17.798;2022-08-19T05:24:12;99196.59;;;24.26;98.01
44213;BME280;29882;46.356;17.798;2022-08-19T05:26:42;99194.16;;;24.35;97.07
44213;BME280;29882;46.356;17.798;2022-08-19T05:29:09;99206.47;;;24.22;98.25
44213;BME280;29882;46.356;17.798;2022-08-19T05:31:37;99203.44;;;24.19;98.96
44213;BME280;29882;46.356;17.798;2022-08-19T05:34:07;99209.50;;;24.26;98.68
44213;BME280;29882;46.356;17.798;2022-08-19T05:36:46;99221.69;;;24.35;97.77
44213;BME280;29882;46.356;17.798;2022-08-19T05:39:19;99228.06;;;24.41;96.25
44213;BME280;29882;46.356;17.798;2022-08-19T05:41:49;99225.88;;;24.48;94.37
44213;BME280;29882;46.356;17.798;2022-08-19T05:44:17;99227.00;;;24.62;92.48
44213;BME280;29882;46.356;17.798;2022-08-19T05:46:44;99232.28;;;24.63;92.57
44213;BME280;29882;46.356;17.798;2022-08-19T05:49:15;99234.75;;;24.70;91.68
44213;BME280;29882;46.356;17.798;2022-08-19T05:51:42;99236.41;;;24.76;91.06
44213;BME280;29882;46.356;17.798;2022-08-19T05:54:10;99249.13;;;24.92;90.03
44213;BME280;29882;46.356;17.798;2022-08-19T05:56:41;99265.41;;;24.99;90.53
44213;BME280;29882;46.356;17.798;2022-08-19T05:59:10;99263.19;;;24.96;91.35
44213;BME280;29882;46.356;17.798;2022-08-19T06:01:38;99266.47;;;24.98;91.42
44213;BME280;29882;46.356;17.798;2022-08-19T06:04:06;99262.66;;;24.99;91.70
44213;BME280;29882;46.356;17.798;2022-08-19T06:06:34;99255.47;;;24.98;90.91
44213;BME280;29882;46.356;17.798;2022-08-19T06:09:03;99264.25;;;24.80;91.36
44213;BME280;29882;46.356;17.798;2022-08-19T06:11:38;99262.59;;;24.74;91.84
44213;BME280;29882;46.356;17.798;2022-08-19T06:14:11;99269.19;;;24.78;91.74
44213;BME280;29882;46.356;17.798;2022-08-19T06:16:42;99276.13;;;24.96;92.09
44213;BME280;29882;46.356;17.798;2022-08-19T06:19:16;99272.63;;;25.10;91.65
44213;BME280;29882;46.356;17.798;2022-08-19T06:21:45;99261.84;;;25.14;91.33
44213;BME280;29882;46.356;17.798;2022-08-19T06:24:17;99260.50;;;25.32;90.06
44213;BME280;29882;46.356;17.798;2022-08-19T06:26:46;99273.75;;;25.35;88.60
44213;BME280;29882;46.356;17.798;2022-08-19T06:29:34;99301.31;;;25.35;89.45
44213;BME280;29882;46.356;17.798;2022-08-19T06:32:02;99317.84;;;25.25;91.66
44213;BME280;29882;46.356;17.798;2022-08-19T06:34:32;99284.19;;;25.12;94.21
44213;BME280;29882;46.356;17.798;2022-08-19T06:37:00;99254.72;;;25.18;93.51
44213;BME280;29882;46.356;17.798;2022-08-19T06:39:31;99245.88;;;25.31;92.98
44213;BME280;29882;46.356;17.798;2022-08-19T06:42:01;99266.00;;;25.42;92.82
44213;BME280;29882;46.356;17.798;2022-08-19T06:44:31;99292.50;;;25.38;91.34
44213;BME280;29882;46.356;17.798;2022-08-19T06:47:11;99285.31;;;25.16;92.62
44213;BME280;29882;46.356;17.798;2022-08-19T06:49:41;99258.00;;;25.30;92.52
44213;BME280;29882;46.356;17.798;2022-08-19T06:52:12;99252.78;;;25.44;92.03
44213;BME280;29882;46.356;17.798;2022-08-19T06:54:41;99299.38;;;25.61;91.27
44213;BME280;29882;46.356;17.798;2022-08-19T06:57:23;99287.50;;;25.60;91.48
44213;BME280;29882;46.356;17.798;2022-08-19T06:59:51;99254.16;;;25.72;91.35
44213;BME280;29882;46.356;17.798;2022-08-19T07:02:19;99233.72;;;25.78;90.50
44213;BME280;29882;46.356;17.798;2022-08-19T07:04:46;99237.31;;;25.89;90.18
44213;BME280;29882;46.356;17.798;2022-08-19T07:07:14;99281.44;;;25.94;88.53
44213;BME280;29882;46.356;17.798;2022-08-19T07:09:50;99290.56;;;25.94;89.33
44213;BME280;29882;46.356;17.798;2022-08-19T07:12:30;99257.69;;;26.03;88.27
44213;BME280;29882;46.356;17.798;2022-08-19T07:15:07;99269.22;;;26.20;87.01
44213;BME280;29882;46.356;17.798;2022-08-19T07:17:37;99295.97;;;26.30;84.01
44213;BME280;29882;46.356;17.798;2022-08-19T07:20:08;99294.63;;;26.38;84.37
44213;BME280;29882;46.356;17.798;2022-08-19T07:22:37;99279.09;;;26.47;82.52
44213;BME280;29882;46.356;17.798;2022-08-19T07:25:08;99274.63;;;26.61;81.38
44213;BME280;29882;46.356;17.798;2022-08-19T07:27:36;99283.97;;;26.70;80.71
44213;BME280;29882;46.356;17.798;2022-08-19T07:30:06;99275.69;;;26.70;78.68
44213;BME280;29882;46.356;17.798;2022-08-19T07:32:37;99270.34;;;26.84;77.66
44213;BME280;29882;46.356;17.798;2022-08-19T07:35:04;99277.44;;;27.00;77.02
44213;BME280;29882;46.356;17.798;2022-08-19T07:37:33;99276.88;;;27.03;77.10
44213;BME280;29882;46.356;17.798;2022-08-19T07:40:05;99291.50;;;27.14;76.54
44213;BME280;29882;46.356;17.798;2022-08-19T07:42:32;99286.38;;;27.31;74.61
44213;BME280;29882;46.356;17.798;2022-08-19T07:44:59;99312.03;;;27.42;74.06
44213;BME280;29882;46.356;17.798;2022-08-19T07:47:26;99299.25;;;27.51;74.07
44213;BME280;29882;46.356;17.798;2022-08-19T07:50:15;99292.19;;;27.69;72.50
44213;BME280;29882;46.356;17.798;2022-08-19T07:52:43;99285.97;;;27.82;72.24
44213;BME280;29882;46.356;17.798;2022-08-19T07:55:17;99296.84;;;28.03;70.77
44213;BME280;29882;46.356;17.798;2022-08-19T07:58:04;99285.09;;;28.16;70.14
44213;BME280;29882;46.356;17.798;2022-08-19T08:00:31;99298.50;;;28.27;69.46
44213;BME280;29882;46.356;17.798;2022-08-19T08:02:59;99299.63;;;28.32;67.53
44213;BME280;29882;46.356;17.798;2022-08-19T08:05:26;99295.84;;;28.46;67.39
44213;BME280;29882;46.356;17.798;2022-08-19T08:08:29;99286.56;;;28.56;67.08
44213;BME280;29882;46.356;17.798;2022-08-19T08:11:18;99281.41;;;28.49;67.00
44213;BME280;29882;46.356;17.798;2022-08-19T08:13:47;99277.97;;;28.34;66.96
44213;BME280;29882;46.356;17.798;2022-08-19T08:16:34;99289.59;;;28.36;67.13
44213;BME280;29882;46.356;17.798;2022-08-19T08:19:13;99306.25;;;28.31;67.07
44213;BME280;29882;46.356;17.798;2022-08-19T08:21:53;99306.34;;;28.20;67.70
44213;BME280;29882;46.356;17.798;2022-08-19T08:24:20;99301.84;;;28.30;67.76
44213;BME280;29882;46.356;17.798;2022-08-19T08:26:54;99312.97;;;28.24;66.39
44213;BME280;29882;46.356;17.798;2022-08-19T08:29:23;99303.53;;;28.25;64.93
44213;BME280;29882;46.356;17.798;2022-08-19T08:31:51;99321.19;;;28.59;63.86
44213;BME280;29882;46.356;17.798;2022-08-19T08:34:25;99307.56;;;28.62;63.27
44213;BME280;29882;46.356;17.798;2022-08-19T08:36:52;99317.59;;;28.58;62.21
44213;BME280;29882;46.356;17.798;2022-08-19T08:39:20;99325.06;;;28.58;63.14
44213;BME280;29882;46.356;17.798;2022-08-19T08:47:04;99307.06;;;29.03;62.96
44213;BME280;29882;46.356;17.798;2022-08-19T08:52:35;99315.06;;;29.23;59.77
44213;BME280;29882;46.356;17.798;2022-08-19T08:55:10;99299.97;;;29.29;59.80
44213;BME280;29882;46.356;17.798;2022-08-19T08:57:50;99319.50;;;29.24;58.69
44213;BME280;29882;46.356;17.798;2022-08-19T09:00:28;99314.56;;;29.21;58.48
44213;BME280;29882;46.356;17.798;2022-08-19T09:02:57;99320.63;;;29.23;57.64
44213;BME280;29882;46.356;17.798;2022-08-19T09:05:41;99318.16;;;29.22;58.83
44213;BME280;29882;46.356;17.798;2022-08-19T09:10:57;99308.88;;;29.64;58.07
44213;BME280;29882;46.356;17.798;2022-08-19T09:16:16;99312.97;;;29.85;57.42
44213;BME280;29882;46.356;17.798;2022-08-19T09:19:00;99326.22;;;30.07;57.87
44213;BME280;29882;46.356;17.798;2022-08-19T09:21:32;99344.53;;;30.08;57.05
44213;BME280;29882;46.356;17.798;2022-08-19T09:24:01;99325.09;;;30.08;56.82
44213;BME280;29882;46.356;17.798;2022-08-19T09:26:30;99330.16;;;30.20;56.87
44213;BME280;29882;46.356;17.798;2022-08-19T09:29:14;99346.28;;;30.18;55.50
44213;BME280;29882;46.356;17.798;2022-08-19T09:31:43;99339.47;;;30.10;54.96
44213;BME280;29882;46.356;17.798;2022-08-19T09:34:10;99321.50;;;30.21;54.64
44213;BME280;29882;46.356;17.798;2022-08-19T09:36:48;99336.94;;;30.14;54.37
44213;BME280;29882;46.356;17.798;2022-08-19T09:39:19;99337.69;;;30.01;54.06
44213;BME280;29882;46.356;17.798;2022-08-19T09:41:46;99335.91;;;29.91;54.11
44213;BME280;29882;46.356;17.798;2022-08-19T09:44:15;99345.38;;;29.90;54.59
44213;BME280;29882;46.356;17.798;2022-08-19T09:46:44;99343.72;;;29.89;53.90
44213;BME280;29882;46.356;17.798;2022-08-19T09:49:15;99339.50;;;29.78;54.20
44213;BME280;29882;46.356;17.798;2022-08-19T09:51:45;99339.88;;;29.71;54.57
44213;BME280;29882;46.356;17.798;2022-08-19T09:54:17;99340.09;;;29.75;54.80
44213;BME280;29882;46.356;17.798;2022-08-19T09:56:50;99339.00;;;29.57;54.99
44213;BME280;29882;46.356;17.798;2022-08-19T09:59:17;99329.06;;;29.70;54.97
44213;BME280;29882;46.356;17.798;2022-08-19T10:01:44;99327.19;;;29.65;54.96
44213;BME280;29882;46.356;17.798;2022-08-19T10:04:12;99317.91;;;29.75;54.73
44213;BME280;29882;46.356;17.798;2022-08-19T10:06:47;99314.13;;;29.84;54.54
44213;BME280;29882;46.356;17.798;2022-08-19T10:09:19;99312.97;;;29.85;54.37
44213;BME280;29882;46.356;17.798;2022-08-19T10:12:00;99306.53;;;30.04;54.39
44213;BME280;29882;46.356;17.798;2022-08-19T10:14:28;99300.88;;;29.95;54.68
44213;BME280;29882;46.356;17.798;2022-08-19T10:16:56;99309.72;;;29.97;54.78
44213;BME280;29882;46.356;17.798;2022-08-19T10:19:25;99319.81;;;30.07;54.86
44213;BME280;29882;46.356;17.798;2022-08-19T10:21:55;99311.47;;;30.07;54.73
44213;BME280;29882;46.356;17.798;2022-08-19T10:24:26;99331.47;;;30.09;54.54
44213;BME280;29882;46.356;17.798;2022-08-19T10:26:55;99348.16;;;30.22;54.44
44213;BME280;29882;46.356;17.798;2022-08-19T10:29:26;99377.03;;;30.08;55.13
44213;BME280;29882;46.356;17.798;2022-08-19T10:32:05;99391.84;;;30.03;55.52
44213;BME280;29882;46.356;17.798;2022-08-19T10:34:37;99421.13;;;30.14;55.06
44213;BME280;29882;46.356;17.798;2022-08-19T10:37:14;99435.97;;;30.23;55.52
44213;BME280;29882;46.356;17.798;2022-08-19T10:39:49;99466.16;;;29.92;55.75
44213;BME280;29882;46.356;17.798;2022-08-19T10:42:18;99489.75;;;29.95;56.49
44213;BME280;29882;46.356;17.798;2022-08-19T10:44:45;99492.59;;;29.90;54.61
44213;BME280;29882;46.356;17.798;2022-08-19T10:47:13;99503.69;;;29.90;54.12
44213;BME280;29882;46.356;17.798;2022-08-19T10:49:51;99520.72;;;29.83;54.25
44213;BME280;29882;46.356;17.798;2022-08-19T10:52:45;99559.75;;;29.73;51.03
44213;BME280;29882;46.356;17.798;2022-08-19T10:55:15;99548.78;;;29.63;51.15
44213;BME280;29882;46.356;17.798;2022-08-19T10:58:01;99552.91;;;29.65;50.21
44213;BME280;29882;46.356;17.798;2022-08-19T11:00:30;99559.22;;;29.71;50.20
44213;BME280;29882;46.356;17.798;2022-08-19T11:02:58;99533.88;;;29.78;50.04
44213;BME280;29882;46.356;17.798;2022-08-19T11:05:25;99511.06;;;29.81;50.13
44213;BME280;29882;46.356;17.798;2022-08-19T11:07:52;99493.88;;;29.98;49.98
44213;BME280;29882;46.356;17.798;2022-08-19T11:10:20;99498.81;;;30.01;51.12
44213;BME280;29882;46.356;17.798;2022-08-19T11:12:50;99508.38;;;29.94;52.26
44213;BME280;29882;46.356;17.798;2022-08-19T11:15:21;99534.00;;;29.49;49.18
44213;BME280;29882;46.356;17.798;2022-08-19T11:17:51;99516.09;;;29.12;48.51
44213;BME280;29882;46.356;17.798;2022-08-19T11:20:19;99517.66;;;29.18;49.59
44213;BME280;29882;46.356;17.798;2022-08-19T11:22:47;99534.84;;;29.20;48.89
44213;BME280;29882;46.356;17.798;2022-08-19T11:25:17;99542.06;;;29.21;49.68
44213;BME280;29882;46.356;17.798;2022-08-19T11:27:44;99537.72;;;29.10;50.30
44213;BME280;29882;46.356;17.798;2022-08-19T11:30:13;99550.25;;;29.07;50.53
44213;BME280;29882;46.356;17.798;2022-08-19T11:32:41;99546.44;;;28.69;50.86
44213;BME280;29882;46.356;17.798;2022-08-19T11:35:15;99539.81;;;28.65;51.32
44213;BME280;29882;46.356;17.798;2022-08-19T11:37:42;99524.00;;;28.66;51.62
44213;BME280;29882;46.356;17.798;2022-08-19T11:40:10;99523.19;;;28.65;51.80
44213;BME280;29882;46.356;17.798;2022-08-19T11:42:37;99545.41;;;28.21;52.80
44213;BME280;29882;46.356;17.798;2022-08-19T11:45:26;99530.41;;;28.27;52.79
44213;BME280;29882;46.356;17.798;2022-08-19T11:47:54;99528.56;;;28.12;53.72
44213;BME280;29882;46.356;17.798;2022-08-19T11:50:22;99539.25;;;27.95;54.04
44213;BME280;29882;46.356;17.798;2022-08-19T11:52:53;99546.22;;;27.82;54.61
44213;BME280;29882;46.356;17.798;2022-08-19T11:55:21;99526.09;;;27.61;55.28
44213;BME280;29882;46.356;17.798;2022-08-19T11:57:48;99507.78;;;27.65;55.76
44213;BME280;29882;46.356;17.798;2022-08-19T12:00:16;99487.41;;;27.51;56.48
44213;BME280;29882;46.356;17.798;2022-08-19T12:02:43;99486.00;;;27.54;56.86
44213;BME280;29882;46.356;17.798;2022-08-19T12:05:10;99492.72;;;27.37;57.44
44213;BME280;29882;46.356;17.798;2022-08-19T12:07:39;99477.47;;;27.40;57.77
44213;BME280;29882;46.356;17.798;2022-08-19T12:10:08;99498.31;;;27.22;58.77
44213;BME280;29882;46.356;17.798;2022-08-19T12:12:37;99515.47;;;27.19;58.76
44213;BME280;29882;46.356;17.798;2022-08-19T12:15:11;99520.78;;;27.05;59.29
44213;BME280;29882;46.356;17.798;2022-08-19T12:17:38;99513.88;;;27.03;59.76
44213;BME280;29882;46.356;17.798;2022-08-19T12:20:06;99507.81;;;26.80;60.73
44213;BME280;29882;46.356;17.798;2022-08-19T12:22:37;99503.44;;;26.69;62.74
44213;BME280;29882;46.356;17.798;2022-08-19T12:25:04;99478.00;;;26.47;62.07
44213;BME280;29882;46.356;17.798;2022-08-19T12:27:32;99448.72;;;26.30;65.13
44213;BME280;29882;46.356;17.798;2022-08-19T12:30:09;99428.31;;;26.16;65.74
44213;BME280;29882;46.356;17.798;2022-08-19T12:32:38;99399.59;;;25.92;69.31
44213;BME280;29882;46.356;17.798;2022-08-19T12:35:06;99381.91;;;26.03;72.23
44213;BME280;29882;46.356;17.798;2022-08-19T12:37:35;99372.81;;;26.08;70.40
44213;BME280;29882;46.356;17.798;2022-08-19T12:40:03;99357.09;;;25.98;80.31
44213;BME280;29882;46.356;17.798;2022-08-19T12:42:30;99341.91;;;25.90;93.21
44213;BME280;29882;46.356;17.798;2022-08-19T12:44:58;99341.63;;;25.92;100.00
44213;BME280;29882;46.356;17.798;2022-08-19T12:47:25;99329.22;;;25.84;100.00
44213;BME280;29882;46.356;17.798;2022-08-19T12:49:53;99321.47;;;25.76;100.00
44213;BME280;29882;46.356;17.798;2022-08-19T12:52:23;99328.13;;;25.80;100.00
44213;BME280;29882;46.356;17.798;2022-08-19T12:54:53;99360.97;;;25.71;100.00
44213;BME280;29882;46.356;17.798;2022-08-19T12:57:23;99283.13;;;25.80;79.37
44213;BME280;29882;46.356;17.798;2022-08-19T13:00:24;99292.22;;;25.85;93.07
44213;BME280;29882;46.356;17.798;2022-08-19T13:02:51;99272.66;;;25.82;98.00
44213;BME280;29882;46.356;17.798;2022-08-19T13:05:24;99277.59;;;25.64;94.94
44213;BME280;29882;46.356;17.798;2022-08-19T13:07:53;99268.25;;;25.70;87.67
44213;BME280;29882;46.356;17.798;2022-08-19T13:10:27;99287.25;;;25.62;88.83
44213;BME280;29882;46.356;17.798;2022-08-19T13:12:55;99302.97;;;25.51;96.19
44213;BME280;29882;46.356;17.798;2022-08-19T13:15:23;99326.16;;;25.35;90.63
44213;BME280;29882;46.356;17.798;2022-08-19T13:17:52;99344.03;;;25.32;90.77
44213;BME280;29882;46.356;17.798;2022-08-19T13:20:21;99337.13;;;25.14;92.90
44213;BME280;29882;46.356;17.798;2022-08-19T13:22:48;99316.16;;;25.13;89.65
44213;BME280;29882;46.356;17.798;2022-08-19T13:25:16;99317.28;;;25.23;88.38
44213;BME280;29882;46.356;17.798;2022-08-19T13:27:47;99322.00;;;25.32;87.03
44213;BME280;29882;46.356;17.798;2022-08-19T13:30:15;99310.69;;;25.39;85.34
44213;BME280;29882;46.356;17.798;2022-08-19T13:33:02;99306.28;;;25.48;84.12
44213;BME280;29882;46.356;17.798;2022-08-19T13:35:43;99278.44;;;25.44;85.63
44213;BME280;29882;46.356;17.798;2022-08-19T13:38:11;99257.75;;;25.47;86.72
44213;BME280;29882;46.356;17.798;2022-08-19T13:40:40;99257.75;;;25.47;86.05
44213;BME280;29882;46.356;17.798;2022-08-19T13:43:08;99261.06;;;25.44;87.19
44213;BME280;29882;46.356;17.798;2022-08-19T13:45:53;99270.69;;;25.41;84.91
44213;BME280;29882;46.356;17.798;2022-08-19T13:48:24;99252.78;;;25.39;85.00
44213;BME280;29882;46.356;17.798;2022-08-19T13:50:53;99245.06;;;25.36;85.89
44213;BME280;29882;46.356;17.798;2022-08-19T13:53:20;99238.44;;;25.37;84.32
44213;BME280;29882;46.356;17.798;2022-08-19T13:55:48;99224.91;;;25.40;83.25
44213;BME280;29882;46.356;17.798;2022-08-19T13:58:17;99206.97;;;25.48;80.44
44213;BME280;29882;46.356;17.798;2022-08-19T14:00:45;99194.28;;;25.52;81.38
44213;BME280;29882;46.356;17.798;2022-08-19T14:03:13;99167.81;;;25.61;81.28
44213;BME280;29882;46.356;17.798;2022-08-19T14:05:40;99151.50;;;25.60;81.10
44213;BME280;29882;46.356;17.798;2022-08-19T14:08:07;99156.16;;;25.69;81.40
44213;BME280;29882;46.356;17.798;2022-08-19T14:10:36;99171.59;;;25.86;80.88
44213;BME280;29882;46.356;17.798;2022-08-19T14:13:03;99166.88;;;25.96;78.71
44213;BME280;29882;46.356;17.798;2022-08-19T14:15:31;99152.47;;;26.10;76.79
44213;BME280;29882;46.356;17.798;2022-08-19T14:17:58;99148.72;;;26.45;77.02
44213;BME280;29882;46.356;17.798;2022-08-19T14:20:26;99145.41;;;26.87;73.41
44213;BME280;29882;46.356;17.798;2022-08-19T14:22:54;99141.72;;;28.08;69.97
44213;BME280;29882;46.356;17.798;2022-08-19T14:25:25;99150.25;;;29.38;65.53
44213;BME280;29882;46.356;17.798;2022-08-19T14:27:53;99150.66;;;30.33;59.23
44213;BME280;29882;46.356;17.798;2022-08-19T14:30:24;99160.09;;;30.82;56.07
44213;BME280;29882;46.356;17.798;2022-08-19T14:32:56;99160.19;;;31.13;57.21
44213;BME280;29882;46.356;17.798;2022-08-19T14:35:26;99152.09;;;31.02;59.15
44213;BME280;29882;46.356;17.798;2022-08-19T14:37:54;99147.91;;;30.55;60.75
44213;BME280;29882;46.356;17.798;2022-08-19T14:40:25;99149.59;;;30.42;59.98
44213;BME280;29882;46.356;17.798;2022-08-19T14:42:53;99140.81;;;29.85;60.80
44213;BME280;29882;46.356;17.798;2022-08-19T14:45:27;99144.47;;;29.81;61.91
44213;BME280;29882;46.356;17.798;2022-08-19T14:47:55;99144.28;;;29.77;62.34
44213;BME280;29882;46.356;17.798;2022-08-19T14:50:22;99177.63;;;29.45;61.98
44213;BME280;29882;46.356;17.798;2022-08-19T14:52:49;99165.38;;;29.32;63.30
44213;BME280;29882;46.356;17.798;2022-08-19T14:55:18;99139.66;;;29.59;61.72
44213;BME280;29882;46.356;17.798;2022-08-19T14:57:45;99134.09;;;29.73;62.76
44213;BME280;29882;46.356;17.798;2022-08-19T15:00:13;99141.75;;;30.58;62.49
44213;BME280;29882;46.356;17.798;2022-08-19T15:02:41;99127.25;;;30.84;62.04
44213;BME280;29882;46.356;17.798;2022-08-19T15:05:11;99115.25;;;31.81;59.85
44213;BME280;29882;46.356;17.798;2022-08-19T15:07:39;99114.25;;;32.52;56.92
44213;BME280;29882;46.356;17.798;2022-08-19T15:10:09;99102.94;;;32.39;56.79
44213;BME280;29882;46.356;17.798;2022-08-19T15:12:37;99104.09;;;32.56;56.23
44213;BME280;29882;46.356;17.798;2022-08-19T15:15:13;99109.50;;;32.87;55.69
44213;BME280;29882;46.356;17.798;2022-08-19T15:17:41;99111.44;;;32.78;55.62
44213;BME280;29882;46.356;17.798;2022-08-19T15:20:20;99140.06;;;31.69;57.52
44213;BME280;29882;46.356;17.798;2022-08-19T15:22:49;99144.06;;;31.46;60.76
44213;BME280;29882;46.356;17.798;2022-08-19T15:25:18;99137.63;;;30.92;61.67
44213;BME280;29882;46.356;17.798;2022-08-19T15:27:46;99135.81;;;30.37;62.62
44213;BME280;29882;46.356;17.798;2022-08-19T15:30:26;99141.91;;;30.75;61.68
44213;BME280;29882;46.356;17.798;2022-08-19T15:32:55;99127.00;;;29.94;65.03
44213;BME280;29882;46.356;17.798;2022-08-19T15:35:23;99139.34;;;30.02;65.58
44213;BME280;29882;46.356;17.798;2022-08-19T15:37:52;99148.53;;;29.42;67.45
44213;BME280;29882;46.356;17.798;2022-08-19T15:40:20;99164.13;;;29.24;67.65
44213;BME280;29882;46.356;17.798;2022-08-19T15:42:48;99155.63;;;28.64;70.20
44213;BME280;29882;46.356;17.798;2022-08-19T15:45:17;99160.88;;;28.47;72.21
44213;BME280;29882;46.356;17.798;2022-08-19T15:47:45;99169.41;;;28.32;73.25
44213;BME280;29882;46.356;17.798;2022-08-19T15:50:17;99174.16;;;28.02;74.31
44213;BME280;29882;46.356;17.798;2022-08-19T15:52:55;99167.44;;;27.60;76.42
44213;BME280;29882;46.356;17.798;2022-08-19T15:55:27;99169.13;;;27.56;75.89
44213;BME280;29882;46.356;17.798;2022-08-19T15:58:08;99175.59;;;27.47;76.59
44213;BME280;29882;46.356;17.798;2022-08-19T16:01:03;99182.00;;;27.42;77.16
44213;BME280;29882;46.356;17.798;2022-08-19T16:03:51;99177.84;;;27.10;77.60
44213;BME280;29882;46.356;17.798;2022-08-19T16:06:52;99174.03;;;27.06;77.89
44213;BME280;29882;46.356;17.798;2022-08-19T16:09:22;99166.56;;;27.07;79.38
44213;BME280;29882;46.356;17.798;2022-08-19T16:11:55;99169.91;;;26.99;79.21
44213;BME280;29882;46.356;17.798;2022-08-19T16:14:29;99170.97;;;27.08;80.53
44213;BME280;29882;46.356;17.798;2022-08-19T16:16:56;99162.56;;;27.23;80.36
44213;BME280;29882;46.356;17.798;2022-08-19T16:19:24;99145.19;;;27.12;82.14
44213;BME280;29882;46.356;17.798;2022-08-19T16:21:53;99141.50;;;27.22;83.41
44213;BME280;29882;46.356;17.798;2022-08-19T16:24:23;99129.81;;;27.30;81.40
44213;BME280;29882;46.356;17.798;2022-08-19T16:26:51;99116.00;;;27.30;81.30
44213;BME280;29882;46.356;17.798;2022-08-19T16:29:19;99118.22;;;27.28;82.01
44213;BME280;29882;46.356;17.798;2022-08-19T16:32:07;99130.38;;;27.32;83.19
44213;BME280;29882;46.356;17.798;2022-08-19T16:34:40;99130.81;;;27.15;83.25
44213;BME280;29882;46.356;17.798;2022-08-19T16:37:08;99130.75;;;27.21;83.53
44213;BME280;29882;46.356;17.798;2022-08-19T16:39:35;99134.44;;;27.11;84.88
44213;BME280;29882;46.356;17.798;2022-08-19T16:42:03;99151.66;;;27.03;84.53
44213;BME280;29882;46.356;17.798;2022-08-19T16:44:34;99156.63;;;27.06;84.00
44213;BME280;29882;46.356;17.798;2022-08-19T16:47:02;99150.94;;;26.87;85.70
44213;BME280;29882;46.356;17.798;2022-08-19T16:49:29;99158.66;;;26.85;85.58
44213;BME280;29882;46.356;17.798;2022-08-19T16:52:17;99152.97;;;26.71;86.98
44213;BME280;29882;46.356;17.798;2022-08-19T16:54:45;99162.09;;;26.72;88.26
44213;BME280;29882;46.356;17.798;2022-08-19T16:57:13;99169.03;;;26.69;88.89
44213;BME280;29882;46.356;17.798;2022-08-19T16:59:40;99176.34;;;26.45;90.73
44213;BME280;29882;46.356;17.798;2022-08-19T17:02:16;99179.19;;;26.24;94.17
44213;BME280;29882;46.356;17.798;2022-08-19T17:04:43;99179.50;;;26.18;95.93
44213;BME280;29882;46.356;17.798;2022-08-19T17:07:28;99168.69;;;26.21;97.01
44213;BME280;29882;46.356;17.798;2022-08-19T17:10:00;99178.44;;;26.09;98.45
44213;BME280;29882;46.356;17.798;2022-08-19T17:12:28;99185.94;;;25.88;100.00
44213;BME280;29882;46.356;17.798;2022-08-19T17:14:59;99205.25;;;25.88;100.00
44213;BME280;29882;46.356;17.798;2022-08-19T17:17:27;99209.38;;;25.95;100.00
44213;BME280;29882;46.356;17.798;2022-08-19T17:19:59;99221.50;;;26.04;100.00
44213;BME280;29882;46.356;17.798;2022-08-19T17:22:27;99225.66;;;26.07;100.00
44213;BME280;29882;46.356;17.798;2022-08-19T17:24:55;99229.78;;;26.10;100.00
44213;BME280;29882;46.356;17.798;2022-08-19T17:27:25;99235.03;;;26.11;100.00
44213;BME280;29882;46.356;17.798;2022-08-19T17:29:59;99254.63;;;26.10;100.00
44213;BME280;29882;46.356;17.798;2022-08-19T17:32:29;99254.34;;;26.11;100.00
44213;BME280;29882;46.356;17.798;2022-08-19T17:34:58;99241.91;;;26.19;100.00
44213;BME280;29882;46.356;17.798;2022-08-19T17:37:25;99236.09;;;26.20;100.00
44213;BME280;29882;46.356;17.798;2022-08-19T17:39:53;99227.53;;;26.22;100.00
44213;BME280;29882;46.356;17.798;2022-08-19T17:42:21;99225.34;;;26.19;100.00
44213;BME280;29882;46.356;17.798;2022-08-19T17:44:48;99239.72;;;26.16;100.00
44213;BME280;29882;46.356;17.798;2022-08-19T17:47:17;99250.19;;;26.14;100.00
44213;BME280;29882;46.356;17.798;2022-08-19T17:49:45;99261.25;;;26.09;100.00
44213;BME280;29882;46.356;17.798;2022-08-19T17:52:12;99251.03;;;26.09;100.00
44213;BME280;29882;46.356;17.798;2022-08-19T17:54:39;99257.13;;;26.06;100.00
44213;BME280;29882;46.356;17.798;2022-08-19T17:57:06;99248.56;;;26.02;100.00
44213;BME280;29882;46.356;17.798;2022-08-19T17:59:34;99243.34;;;25.96;100.00
44213;BME280;29882;46.356;17.798;2022-08-19T18:02:04;99241.72;;;25.85;100.00
44213;BME280;29882;46.356;17.798;2022-08-19T18:04:32;99249.16;;;25.89;100.00